sensor_id;sensor_type;location;lat;lon;timestamp;pressure;altitude;pressure_sealevel;temperature
11424;BMP180;5768;51.476;7.210;2023-03-13T00:03:50;99107.00;;;13.60
11424;BMP180;5768;51.476;7.210;2023-03-13T00:08:54;99097.00;;;13.70
11424;BMP180;5768;51.476;7.210;2023-03-13T00:13:59;99085.00;;;13.70
11424;BMP180;5768;51.476;7.210;2023-03-13T00:19:02;99088.00;;;13.70
11424;BMP180;5768;51.476;7.210;2023-03-13T00:24:09;99072.00;;;13.80
11424;BMP180;5768;51.476;7.210;2023-03-13T00:29:14;99069.00;;;13.80
11424;BMP180;5768;51.476;7.210;2023-03-13T00:34:16;99048.00;;;13.90
11424;BMP180;5768;51.476;7.210;2023-03-13T00:39:20;99041.00;;;13.90
11424;BMP180;5768;51.476;7.210;2023-03-13T00:44:22;99039.00;;;13.80
11424;BMP180;5768;51.476;7.210;2023-03-13T00:49:24;99010.00;;;13.80
11424;BMP180;5768;51.476;7.210;2023-03-13T00:54:28;99014.00;;;13.90
11424;BMP180;5768;51.476;7.210;2023-03-13T00:59:30;99011.00;;;14.00
11424;BMP180;5768;51.476;7.210;2023-03-13T01:04:32;98995.00;;;14.00
11424;BMP180;5768;51.476;7.210;2023-03-13T01:09:42;98980.00;;;14.00
11424;BMP180;5768;51.476;7.210;2023-03-13T01:14:49;98967.00;;;13.90
11424;BMP180;5768;51.476;7.210;2023-03-13T01:19:54;98949.00;;;13.90
11424;BMP180;5768;51.476;7.210;2023-03-13T01:24:58;98935.00;;;13.90
11424;BMP180;5768;51.476;7.210;2023-03-13T01:30:00;98927.00;;;13.90
11424;BMP180;5768;51.476;7.210;2023-03-13T01:35:02;98929.00;;;13.90
11424;BMP180;5768;51.476;7.210;2023-03-13T01:40:08;98914.00;;;13.90
11424;BMP180;5768;51.476;7.210;2023-03-13T01:45:56;98909.00;;;13.80
11424;BMP180;5768;51.476;7.210;2023-03-13T01:51:02;98892.00;;;13.70
11424;BMP180;5768;51.476;7.210;2023-03-13T01:56:14;98877.00;;;13.70
11424;BMP180;5768;51.476;7.210;2023-03-13T02:01:18;98861.00;;;13.70
11424;BMP180;5768;51.476;7.210;2023-03-13T02:06:21;98848.00;;;13.70
11424;BMP180;5768;51.476;7.210;2023-03-13T02:11:36;98839.00;;;13.70
11424;BMP180;5768;51.476;7.210;2023-03-13T02:16:44;98809.00;;;13.60
11424;BMP180;5768;51.476;7.210;2023-03-13T02:21:58;98798.00;;;13.50
11424;BMP180;5768;51.476;7.210;2023-03-13T02:27:03;98801.00;;;13.50
11424;BMP180;5768;51.476;7.210;2023-03-13T02:32:06;98774.00;;;13.40
11424;BMP180;5768;51.476;7.210;2023-03-13T02:37:09;98759.00;;;13.40
11424;BMP180;5768;51.476;7.210;2023-03-13T02:42:17;98741.00;;;13.40
11424;BMP180;5768;51.476;7.210;2023-03-13T02:47:22;98739.00;;;13.40
11424;BMP180;5768;51.476;7.210;2023-03-13T02:52:28;98729.00;;;13.40
11424;BMP180;5768;51.476;7.210;2023-03-13T02:57:32;98728.00;;;13.40
11424;BMP180;5768;51.476;7.210;2023-03-13T03:02:38;98721.00;;;13.40
11424;BMP180;5768;51.476;7.210;2023-03-13T03:07:40;98706.00;;;13.40
11424;BMP180;5768;51.476;7.210;2023-03-13T03:12:44;98718.00;;;13.40
11424;BMP180;5768;51.476;7.210;2023-03-13T03:17:49;98702.00;;;13.40
11424;BMP180;5768;51.476;7.210;2023-03-13T03:22:51;98698.00;;;13.40
11424;BMP180;5768;51.476;7.210;2023-03-13T03:27:55;98683.00;;;13.40
11424;BMP180;5768;51.476;7.210;2023-03-13T03:32:57;98684.00;;;13.40
11424;BMP180;5768;51.476;7.210;2023-03-13T03:37:59;98684.00;;;13.40
11424;BMP180;5768;51.476;7.210;2023-03-13T03:43:03;98675.00;;;13.40
11424;BMP180;5768;51.476;7.210;2023-03-13T03:48:05;98673.00;;;13.40
11424;BMP180;5768;51.476;7.210;2023-03-13T03:53:07;98672.00;;;13.40
11424;BMP180;5768;51.476;7.210;2023-03-13T03:58:14;98667.00;;;13.50
11424;BMP180;5768;51.476;7.210;2023-03-13T04:03:16;98677.00;;;13.60
11424;BMP180;5768;51.476;7.210;2023-03-13T04:08:18;98687.00;;;13.50
11424;BMP180;5768;51.476;7.210;2023-03-13T04:13:22;98677.00;;;13.40
11424;BMP180;5768;51.476;7.210;2023-03-13T04:18:24;98678.00;;;13.40
11424;BMP180;5768;51.476;7.210;2023-03-13T04:23:26;98669.00;;;13.40
11424;BMP180;5768;51.476;7.210;2023-03-13T04:28:30;98669.00;;;13.50
11424;BMP180;5768;51.476;7.210;2023-03-13T04:33:32;98639.00;;;13.60
11424;BMP180;5768;51.476;7.210;2023-03-13T04:38:36;98637.00;;;13.70
11424;BMP180;5768;51.476;7.210;2023-03-13T04:43:40;98640.00;;;13.70
11424;BMP180;5768;51.476;7.210;2023-03-13T04:48:42;98645.00;;;13.70
11424;BMP180;5768;51.476;7.210;2023-03-13T04:53:44;98629.00;;;13.70
11424;BMP180;5768;51.476;7.210;2023-03-13T04:58:48;98620.00;;;13.70
11424;BMP180;5768;51.476;7.210;2023-03-13T05:03:50;98621.00;;;13.70
11424;BMP180;5768;51.476;7.210;2023-03-13T05:08:52;98629.00;;;13.80
11424;BMP180;5768;51.476;7.210;2023-03-13T05:13:58;98611.00;;;13.90
11424;BMP180;5768;51.476;7.210;2023-03-13T05:19:00;98613.00;;;13.90
11424;BMP180;5768;51.476;7.210;2023-03-13T05:24:03;98609.00;;;14.00
11424;BMP180;5768;51.476;7.210;2023-03-13T05:29:07;98609.00;;;14.10
11424;BMP180;5768;51.476;7.210;2023-03-13T05:34:09;98605.00;;;14.10
11424;BMP180;5768;51.476;7.210;2023-03-13T05:39:11;98611.00;;;14.20
11424;BMP180;5768;51.476;7.210;2023-03-13T05:44:15;98605.00;;;14.20
11424;BMP180;5768;51.476;7.210;2023-03-13T05:49:17;98613.00;;;14.30
11424;BMP180;5768;51.476;7.210;2023-03-13T05:54:19;98606.00;;;14.40
11424;BMP180;5768;51.476;7.210;2023-03-13T05:59:22;98604.00;;;14.40
11424;BMP180;5768;51.476;7.210;2023-03-13T06:04:27;98603.00;;;14.50
11424;BMP180;5768;51.476;7.210;2023-03-13T06:09:29;98585.00;;;14.60
11424;BMP180;5768;51.476;7.210;2023-03-13T06:14:33;98580.00;;;14.70
11424;BMP180;5768;51.476;7.210;2023-03-13T06:19:35;98586.00;;;14.80
11424;BMP180;5768;51.476;7.210;2023-03-13T06:24:37;98569.00;;;14.90
11424;BMP180;5768;51.476;7.210;2023-03-13T06:29:40;98578.00;;;15.00
11424;BMP180;5768;51.476;7.210;2023-03-13T06:34:42;98584.00;;;15.10
11424;BMP180;5768;51.476;7.210;2023-03-13T06:39:45;98578.00;;;15.20
11424;BMP180;5768;51.476;7.210;2023-03-13T06:44:48;98580.00;;;15.30
11424;BMP180;5768;51.476;7.210;2023-03-13T06:49:50;98604.00;;;15.40
11424;BMP180;5768;51.476;7.210;2023-03-13T06:54:52;98604.00;;;15.50
11424;BMP180;5768;51.476;7.210;2023-03-13T06:59:56;98591.00;;;15.60
11424;BMP180;5768;51.476;7.210;2023-03-13T07:04:58;98603.00;;;15.70
11424;BMP180;5768;51.476;7.210;2023-03-13T07:10:00;98590.00;;;15.70
11424;BMP180;5768;51.476;7.210;2023-03-13T07:15:05;98578.00;;;15.80
11424;BMP180;5768;51.476;7.210;2023-03-13T07:20:09;98590.00;;;15.90
11424;BMP180;5768;51.476;7.210;2023-03-13T07:25:12;98602.00;;;16.00
11424;BMP180;5768;51.476;7.210;2023-03-13T07:30:16;98588.00;;;16.00
11424;BMP180;5768;51.476;7.210;2023-03-13T07:35:18;98578.00;;;16.10
11424;BMP180;5768;51.476;7.210;2023-03-13T07:40:20;98568.00;;;16.20
11424;BMP180;5768;51.476;7.210;2023-03-13T07:45:24;98552.00;;;16.40
11424;BMP180;5768;51.476;7.210;2023-03-13T07:50:26;98557.00;;;16.40
11424;BMP180;5768;51.476;7.210;2023-03-13T07:55:28;98558.00;;;16.40
11424;BMP180;5768;51.476;7.210;2023-03-13T08:00:32;98544.00;;;16.50
11424;BMP180;5768;51.476;7.210;2023-03-13T08:05:34;98561.00;;;16.60
11424;BMP180;5768;51.476;7.210;2023-03-13T08:10:36;98556.00;;;16.60
11424;BMP180;5768;51.476;7.210;2023-03-13T08:15:40;98552.00;;;16.60
11424;BMP180;5768;51.476;7.210;2023-03-13T08:20:42;98536.00;;;16.60
11424;BMP180;5768;51.476;7.210;2023-03-13T08:25:44;98564.00;;;16.60
11424;BMP180;5768;51.476;7.210;2023-03-13T08:30:48;98549.00;;;16.70
11424;BMP180;5768;51.476;7.210;2023-03-13T08:35:50;98556.00;;;16.70
11424;BMP180;5768;51.476;7.210;2023-03-13T08:40:55;98564.00;;;16.70
11424;BMP180;5768;51.476;7.210;2023-03-13T08:45:59;98591.00;;;16.70
11424;BMP180;5768;51.476;7.210;2023-03-13T08:51:03;98599.00;;;16.70
11424;BMP180;5768;51.476;7.210;2023-03-13T08:56:08;98578.00;;;16.70
11424;BMP180;5768;51.476;7.210;2023-03-13T09:01:13;98583.00;;;16.80
11424;BMP180;5768;51.476;7.210;2023-03-13T09:06:16;98566.00;;;16.70
11424;BMP180;5768;51.476;7.210;2023-03-13T09:11:20;98571.00;;;16.80
11424;BMP180;5768;51.476;7.210;2023-03-13T09:16:27;98560.00;;;17.00
11424;BMP180;5768;51.476;7.210;2023-03-13T09:21:32;98537.00;;;17.20
11424;BMP180;5768;51.476;7.210;2023-03-13T09:26:34;98550.00;;;17.50
11424;BMP180;5768;51.476;7.210;2023-03-13T09:31:38;98541.00;;;17.60
11424;BMP180;5768;51.476;7.210;2023-03-13T09:36:41;98551.00;;;17.80
11424;BMP180;5768;51.476;7.210;2023-03-13T09:41:51;98548.00;;;17.90
11424;BMP180;5768;51.476;7.210;2023-03-13T09:47:02;98531.00;;;17.80
11424;BMP180;5768;51.476;7.210;2023-03-13T09:52:16;98538.00;;;17.90
11424;BMP180;5768;51.476;7.210;2023-03-13T09:57:30;98531.00;;;17.50
11424;BMP180;5768;51.476;7.210;2023-03-13T10:02:36;98519.00;;;17.10
11424;BMP180;5768;51.476;7.210;2023-03-13T10:07:39;98499.00;;;17.00
11424;BMP180;5768;51.476;7.210;2023-03-13T10:12:45;98490.00;;;17.20
11424;BMP180;5768;51.476;7.210;2023-03-13T10:17:48;98515.00;;;17.50
11424;BMP180;5768;51.476;7.210;2023-03-13T10:22:57;98506.00;;;17.60
11424;BMP180;5768;51.476;7.210;2023-03-13T10:28:00;98490.00;;;17.70
11424;BMP180;5768;51.476;7.210;2023-03-13T10:33:24;98475.00;;;17.80
11424;BMP180;5768;51.476;7.210;2023-03-13T10:38:27;98478.00;;;18.50
11424;BMP180;5768;51.476;7.210;2023-03-13T10:43:29;98476.00;;;18.70
11424;BMP180;5768;51.476;7.210;2023-03-13T10:48:37;98476.00;;;18.70
11424;BMP180;5768;51.476;7.210;2023-03-13T10:53:41;98461.00;;;19.00
11424;BMP180;5768;51.476;7.210;2023-03-13T10:58:46;98451.00;;;19.10
11424;BMP180;5768;51.476;7.210;2023-03-13T11:03:53;98435.00;;;19.20
11424;BMP180;5768;51.476;7.210;2023-03-13T11:09:03;98435.00;;;19.30
11424;BMP180;5768;51.476;7.210;2023-03-13T11:14:08;98436.00;;;19.60
11424;BMP180;5768;51.476;7.210;2023-03-13T11:19:46;98410.00;;;19.60
11424;BMP180;5768;51.476;7.210;2023-03-13T11:24:59;98450.00;;;19.50
11424;BMP180;5768;51.476;7.210;2023-03-13T11:30:36;98419.00;;;19.40
11424;BMP180;5768;51.476;7.210;2023-03-13T11:35:49;98430.00;;;19.60
11424;BMP180;5768;51.476;7.210;2023-03-13T11:41:06;98414.00;;;19.70
11424;BMP180;5768;51.476;7.210;2023-03-13T11:46:27;98398.00;;;19.90
11424;BMP180;5768;51.476;7.210;2023-03-13T11:51:49;98414.00;;;20.20
11424;BMP180;5768;51.476;7.210;2023-03-13T11:56:57;98391.00;;;20.20
11424;BMP180;5768;51.476;7.210;2023-03-13T12:02:14;98366.00;;;20.10
11424;BMP180;5768;51.476;7.210;2023-03-13T12:07:26;98381.00;;;20.50
11424;BMP180;5768;51.476;7.210;2023-03-13T12:12:39;98351.00;;;20.50
11424;BMP180;5768;51.476;7.210;2023-03-13T12:17:51;98338.00;;;20.50
11424;BMP180;5768;51.476;7.210;2023-03-13T12:23:15;98331.00;;;20.30
11424;BMP180;5768;51.476;7.210;2023-03-13T12:28:29;98334.00;;;20.20
11424;BMP180;5768;51.476;7.210;2023-03-13T12:33:39;98366.00;;;20.00
11424;BMP180;5768;51.476;7.210;2023-03-13T12:38:49;98317.00;;;20.10
11424;BMP180;5768;51.476;7.210;2023-03-13T12:43:54;98352.00;;;20.10
11424;BMP180;5768;51.476;7.210;2023-03-13T12:49:24;98321.00;;;19.90
11424;BMP180;5768;51.476;7.210;2023-03-13T12:54:57;98319.00;;;19.80
11424;BMP180;5768;51.476;7.210;2023-03-13T13:00:02;98304.00;;;19.80
11424;BMP180;5768;51.476;7.210;2023-03-13T13:05:18;98305.00;;;19.80
11424;BMP180;5768;51.476;7.210;2023-03-13T13:10:24;98295.00;;;19.80
11424;BMP180;5768;51.476;7.210;2023-03-13T13:15:28;98265.00;;;19.80
11424;BMP180;5768;51.476;7.210;2023-03-13T13:20:41;98266.00;;;19.90
11424;BMP180;5768;51.476;7.210;2023-03-13T13:25:47;98255.00;;;20.10
11424;BMP180;5768;51.476;7.210;2023-03-13T13:30:51;98231.00;;;20.90
11424;BMP180;5768;51.476;7.210;2023-03-13T13:36:29;98240.00;;;21.30
11424;BMP180;5768;51.476;7.210;2023-03-13T13:41:36;98257.00;;;20.90
11424;BMP180;5768;51.476;7.210;2023-03-13T13:46:44;98293.00;;;20.80
11424;BMP180;5768;51.476;7.210;2023-03-13T13:52:39;98227.00;;;21.10
11424;BMP180;5768;51.476;7.210;2023-03-13T13:57:43;98254.00;;;20.60
11424;BMP180;5768;51.476;7.210;2023-03-13T14:02:49;98232.00;;;20.20
11424;BMP180;5768;51.476;7.210;2023-03-13T14:07:59;98246.00;;;20.10
11424;BMP180;5768;51.476;7.210;2023-03-13T14:13:14;98214.00;;;20.10
11424;BMP180;5768;51.476;7.210;2023-03-13T14:18:22;98215.00;;;20.10
11424;BMP180;5768;51.476;7.210;2023-03-13T14:23:37;98221.00;;;20.00
11424;BMP180;5768;51.476;7.210;2023-03-13T14:28:46;98202.00;;;19.70
11424;BMP180;5768;51.476;7.210;2023-03-13T14:33:49;98190.00;;;19.60
11424;BMP180;5768;51.476;7.210;2023-03-13T14:38:54;98193.00;;;19.70
11424;BMP180;5768;51.476;7.210;2023-03-13T14:44:05;98170.00;;;19.60
11424;BMP180;5768;51.476;7.210;2023-03-13T14:49:17;98153.00;;;19.70
11424;BMP180;5768;51.476;7.210;2023-03-13T14:54:27;98164.00;;;19.70
11424;BMP180;5768;51.476;7.210;2023-03-13T14:59:31;98157.00;;;19.60
11424;BMP180;5768;51.476;7.210;2023-03-13T15:04:55;98128.00;;;19.40
11424;BMP180;5768;51.476;7.210;2023-03-13T15:09:59;98149.00;;;19.30
11424;BMP180;5768;51.476;7.210;2023-03-13T15:15:03;98122.00;;;19.20
11424;BMP180;5768;51.476;7.210;2023-03-13T15:20:06;98194.00;;;18.40
11424;BMP180;5768;51.476;7.210;2023-03-13T15:25:17;98103.00;;;18.20
11424;BMP180;5768;51.476;7.210;2023-03-13T15:30:21;98123.00;;;18.40
11424;BMP180;5768;51.476;7.210;2023-03-13T15:35:27;98095.00;;;18.90
11424;BMP180;5768;51.476;7.210;2023-03-13T15:40:29;98086.00;;;22.70
11424;BMP180;5768;51.476;7.210;2023-03-13T15:45:34;98094.00;;;25.50
11424;BMP180;5768;51.476;7.210;2023-03-13T15:50:37;98099.00;;;22.70
11424;BMP180;5768;51.476;7.210;2023-03-13T15:55:39;98092.00;;;23.90
11424;BMP180;5768;51.476;7.210;2023-03-13T16:12:18;98053.00;;;27.10
11424;BMP180;5768;51.476;7.210;2023-03-13T16:17:21;98050.00;;;26.80
11424;BMP180;5768;51.476;7.210;2023-03-13T16:22:23;98016.00;;;26.60
11424;BMP180;5768;51.476;7.210;2023-03-13T16:27:27;98032.00;;;24.40
11424;BMP180;5768;51.476;7.210;2023-03-13T16:32:30;98005.00;;;22.30
11424;BMP180;5768;51.476;7.210;2023-03-13T16:37:32;98005.00;;;21.70
11424;BMP180;5768;51.476;7.210;2023-03-13T16:42:35;97994.00;;;21.60
11424;BMP180;5768;51.476;7.210;2023-03-13T16:47:37;97988.00;;;21.40
11424;BMP180;5768;51.476;7.210;2023-03-13T16:52:40;98014.00;;;20.60
11424;BMP180;5768;51.476;7.210;2023-03-13T16:57:43;98000.00;;;19.70
11424;BMP180;5768;51.476;7.210;2023-03-13T17:02:45;97982.00;;;19.20
11424;BMP180;5768;51.476;7.210;2023-03-13T17:07:50;97972.00;;;18.80
11424;BMP180;5768;51.476;7.210;2023-03-13T17:12:53;97984.00;;;18.50
11424;BMP180;5768;51.476;7.210;2023-03-13T17:17:55;97996.00;;;18.20
11424;BMP180;5768;51.476;7.210;2023-03-13T17:22:58;97982.00;;;18.00
11424;BMP180;5768;51.476;7.210;2023-03-13T17:28:07;97978.00;;;18.00
11424;BMP180;5768;51.476;7.210;2023-03-13T17:33:13;97976.00;;;17.90
11424;BMP180;5768;51.476;7.210;2023-03-13T17:38:15;97986.00;;;17.80
11424;BMP180;5768;51.476;7.210;2023-03-13T17:43:28;97984.00;;;17.70
11424;BMP180;5768;51.476;7.210;2023-03-13T17:48:30;97973.00;;;17.70
11424;BMP180;5768;51.476;7.210;2023-03-13T17:53:34;97979.00;;;17.60
11424;BMP180;5768;51.476;7.210;2023-03-13T17:58:40;97974.00;;;17.50
11424;BMP180;5768;51.476;7.210;2023-03-13T18:03:42;97963.00;;;17.50
11424;BMP180;5768;51.476;7.210;2023-03-13T18:08:49;97942.00;;;17.30
11424;BMP180;5768;51.476;7.210;2023-03-13T18:13:53;97946.00;;;17.20
11424;BMP180;5768;51.476;7.210;2023-03-13T18:18:56;97933.00;;;17.20
11424;BMP180;5768;51.476;7.210;2023-03-13T18:23:58;97918.00;;;17.10
11424;BMP180;5768;51.476;7.210;2023-03-13T18:29:13;97942.00;;;17.00
11424;BMP180;5768;51.476;7.210;2023-03-13T18:34:15;97941.00;;;16.90
11424;BMP180;5768;51.476;7.210;2023-03-13T18:39:18;97930.00;;;16.90
11424;BMP180;5768;51.476;7.210;2023-03-13T18:44:24;97933.00;;;16.90
11424;BMP180;5768;51.476;7.210;2023-03-13T18:49:26;97935.00;;;16.80
11424;BMP180;5768;51.476;7.210;2023-03-13T18:54:29;97946.00;;;16.80
11424;BMP180;5768;51.476;7.210;2023-03-13T18:59:32;97938.00;;;16.70
11424;BMP180;5768;51.476;7.210;2023-03-13T19:04:39;97950.00;;;16.70
11424;BMP180;5768;51.476;7.210;2023-03-13T19:09:46;97952.00;;;16.70
11424;BMP180;5768;51.476;7.210;2023-03-13T19:14:50;97934.00;;;16.60
11424;BMP180;5768;51.476;7.210;2023-03-13T19:19:52;97941.00;;;16.60
11424;BMP180;5768;51.476;7.210;2023-03-13T19:24:56;97937.00;;;16.50
11424;BMP180;5768;51.476;7.210;2023-03-13T19:30:00;97936.00;;;16.50
11424;BMP180;5768;51.476;7.210;2023-03-13T19:35:03;97924.00;;;16.50
11424;BMP180;5768;51.476;7.210;2023-03-13T19:40:10;97924.00;;;16.40
11424;BMP180;5768;51.476;7.210;2023-03-13T19:45:17;97904.00;;;16.30
11424;BMP180;5768;51.476;7.210;2023-03-13T19:50:23;97883.00;;;16.20
11424;BMP180;5768;51.476;7.210;2023-03-13T19:55:27;97869.00;;;16.20
11424;BMP180;5768;51.476;7.210;2023-03-13T20:00:31;97861.00;;;16.10
11424;BMP180;5768;51.476;7.210;2023-03-13T20:05:33;97846.00;;;16.10
11424;BMP180;5768;51.476;7.210;2023-03-13T20:10:37;97844.00;;;16.00
11424;BMP180;5768;51.476;7.210;2023-03-13T20:15:41;97846.00;;;15.90
11424;BMP180;5768;51.476;7.210;2023-03-13T20:20:43;97856.00;;;15.80
11424;BMP180;5768;51.476;7.210;2023-03-13T20:25:46;97862.00;;;15.60
11424;BMP180;5768;51.476;7.210;2023-03-13T20:30:52;97853.00;;;15.50
11424;BMP180;5768;51.476;7.210;2023-03-13T20:36:04;97865.00;;;15.40
11424;BMP180;5768;51.476;7.210;2023-03-13T20:41:10;97862.00;;;15.30
11424;BMP180;5768;51.476;7.210;2023-03-13T20:46:14;97862.00;;;15.30
11424;BMP180;5768;51.476;7.210;2023-03-13T20:51:16;97862.00;;;15.20
11424;BMP180;5768;51.476;7.210;2023-03-13T20:56:18;97873.00;;;15.20
11424;BMP180;5768;51.476;7.210;2023-03-13T21:01:26;97842.00;;;15.10
11424;BMP180;5768;51.476;7.210;2023-03-13T21:06:28;97851.00;;;15.10
11424;BMP180;5768;51.476;7.210;2023-03-13T21:11:30;97860.00;;;15.00
11424;BMP180;5768;51.476;7.210;2023-03-13T21:16:34;97864.00;;;15.00
11424;BMP180;5768;51.476;7.210;2023-03-13T21:21:39;97863.00;;;15.00
11424;BMP180;5768;51.476;7.210;2023-03-13T21:26:42;97853.00;;;15.00
11424;BMP180;5768;51.476;7.210;2023-03-13T21:31:45;97852.00;;;15.00
11424;BMP180;5768;51.476;7.210;2023-03-13T21:36:47;97824.00;;;15.00
11424;BMP180;5768;51.476;7.210;2023-03-13T21:41:49;97827.00;;;15.10
11424;BMP180;5768;51.476;7.210;2023-03-13T21:46:53;97803.00;;;15.10
11424;BMP180;5768;51.476;7.210;2023-03-13T21:51:56;97796.00;;;15.10
11424;BMP180;5768;51.476;7.210;2023-03-13T21:56:58;97798.00;;;15.00
11424;BMP180;5768;51.476;7.210;2023-03-13T22:02:01;97799.00;;;14.90
11424;BMP180;5768;51.476;7.210;2023-03-13T22:07:04;97786.00;;;14.80
11424;BMP180;5768;51.476;7.210;2023-03-13T22:12:09;97809.00;;;14.70
11424;BMP180;5768;51.476;7.210;2023-03-13T22:17:13;97831.00;;;14.70
11424;BMP180;5768;51.476;7.210;2023-03-13T22:22:18;97859.00;;;14.60
11424;BMP180;5768;51.476;7.210;2023-03-13T22:27:21;97845.00;;;14.60
11424;BMP180;5768;51.476;7.210;2023-03-13T22:32:26;97865.00;;;14.60
11424;BMP180;5768;51.476;7.210;2023-03-13T22:37:29;97885.00;;;14.70
11424;BMP180;5768;51.476;7.210;2023-03-13T22:42:31;97880.00;;;14.90
11424;BMP180;5768;51.476;7.210;2023-03-13T22:47:35;97863.00;;;15.10
11424;BMP180;5768;51.476;7.210;2023-03-13T22:52:37;97861.00;;;15.00
11424;BMP180;5768;51.476;7.210;2023-03-13T22:57:39;97858.00;;;14.90
11424;BMP180;5768;51.476;7.210;2023-03-13T23:02:43;97840.00;;;14.70
11424;BMP180;5768;51.476;7.210;2023-03-13T23:07:45;97830.00;;;14.50
11424;BMP180;5768;51.476;7.210;2023-03-13T23:12:49;97823.00;;;14.40
11424;BMP180;5768;51.476;7.210;2023-03-13T23:17:53;97792.00;;;14.30
11424;BMP180;5768;51.476;7.210;2023-03-13T23:22:55;97785.00;;;14.30
11424;BMP180;5768;51.476;7.210;2023-03-13T23:27:58;97813.00;;;14.20
11424;BMP180;5768;51.476;7.210;2023-03-13T23:33:01;97811.00;;;14.40
11424;BMP180;5768;51.476;7.210;2023-03-13T23:38:03;97833.00;;;14.50
11424;BMP180;5768;51.476;7.210;2023-03-13T23:43:05;97804.00;;;14.60
11424;BMP180;5768;51.476;7.210;2023-03-13T23:48:11;97796.00;;;14.50
11424;BMP180;5768;51.476;7.210;2023-03-13T23:53:13;97777.00;;;14.40
11424;BMP180;5768;51.476;7.210;2023-03-13T23:58:15;97791.00;;;14.40
